createdAt,value
2018-02-23T00:00:00.233Z,30.40
2018-02-23T00:01:00.220Z,37.80
2018-02-23T00:02:00.207Z,36.10
2018-02-23T00:03:00.197Z,33.90
2018-02-23T00:04:00.185Z,32.20
2018-02-23T00:05:00.171Z,33.50
2018-02-23T00:06:00.157Z,35.00
2018-02-23T00:07:00.144Z,38.30
2018-02-23T00:08:00.150Z,32.80
2018-02-23T00:09:00.117Z,37.00
2018-02-23T00:10:00.112Z,34.90
2018-02-23T00:11:00.092Z,33.90
2018-02-23T00:12:00.075Z,35.30
2018-02-23T00:13:00.064Z,32.10
2018-02-23T00:14:00.049Z,35.70
2018-02-23T00:15:00.038Z,36.30
2018-02-23T00:16:00.023Z,32.40
2018-02-23T00:17:00.014Z,32.90
2018-02-23T00:17:59.998Z,35.70
2018-02-23T00:18:59.984Z,33.20
2018-02-23T00:19:59.972Z,31.80
2018-02-23T00:20:59.961Z,38.60
2018-02-23T00:21:59.947Z,36.80
2018-02-23T00:22:59.934Z,34.50
2018-02-23T00:23:59.920Z,35.30
2018-02-23T00:24:59.906Z,38.00
2018-02-23T00:25:59.894Z,34.40
2018-02-23T00:26:59.880Z,33.60
2018-02-23T00:27:59.864Z,31.40
2018-02-23T00:28:59.850Z,35.20
2018-02-23T00:29:59.838Z,34.20
2018-02-23T00:30:59.826Z,34.00
2018-02-23T00:31:59.811Z,36.20
2018-02-23T00:32:59.797Z,38.80
2018-02-23T00:33:59.785Z,37.80
2018-02-23T00:34:59.772Z,36.50
2018-02-23T00:35:59.760Z,40.00
2018-02-23T00:36:59.748Z,40.50
2018-02-23T00:37:59.735Z,40.40
2018-02-23T00:38:59.721Z,35.80
2018-02-23T00:39:59.706Z,38.20
2018-02-23T00:40:59.694Z,37.70
2018-02-23T00:41:59.681Z,35.00
2018-02-23T00:42:59.667Z,35.10
2018-02-23T00:43:59.650Z,36.40
2018-02-23T00:44:59.640Z,35.60
2018-02-23T00:45:59.624Z,37.80
2018-02-23T00:46:59.609Z,35.80
2018-02-23T00:47:59.600Z,37.10
2018-02-23T00:48:59.585Z,40.10
2018-02-23T00:49:59.574Z,36.60
2018-02-23T00:50:59.560Z,38.40
2018-02-23T00:51:59.543Z,36.30
2018-02-23T00:52:59.528Z,38.70
2018-02-23T00:53:59.531Z,38.00
2018-02-23T00:54:59.504Z,38.80
2018-02-23T00:55:59.491Z,37.40
2018-02-23T00:56:59.476Z,38.00
2018-02-23T00:57:59.462Z,38.90
2018-02-23T00:58:59.449Z,39.10
2018-02-23T00:59:59.437Z,38.20
2018-02-23T01:00:59.425Z,34.80
2018-02-23T01:01:59.411Z,38.10
2018-02-23T01:02:59.398Z,32.30
2018-02-23T01:03:59.383Z,35.10
2018-02-23T01:04:59.370Z,37.70
2018-02-23T01:05:59.357Z,36.20
2018-02-23T01:06:59.345Z,32.70
2018-02-23T01:07:59.327Z,39.20
2018-02-23T01:08:59.314Z,33.60
2018-02-23T01:09:59.299Z,35.60
2018-02-23T01:10:59.289Z,35.20
2018-02-23T01:11:59.272Z,34.80
2018-02-23T01:12:59.259Z,38.40
2018-02-23T01:13:59.247Z,36.10
2018-02-23T01:14:59.233Z,32.70
2018-02-23T01:15:59.220Z,35.80
2018-02-23T01:16:59.207Z,34.70
2018-02-23T01:17:59.197Z,37.90
2018-02-23T01:18:59.181Z,33.30
2018-02-23T01:19:59.166Z,42.20
2018-02-23T01:20:59.158Z,34.80
2018-02-23T01:21:59.140Z,36.90
2018-02-23T01:22:59.127Z,35.20
2018-02-23T01:23:59.110Z,34.60
2018-02-23T01:24:59.098Z,35.70
2018-02-23T01:25:59.083Z,34.40
2018-02-23T01:26:59.070Z,35.40
2018-02-23T01:27:59.057Z,33.40
2018-02-23T01:28:59.046Z,33.60
2018-02-23T01:29:59.029Z,32.50
2018-02-23T01:30:59.016Z,33.60
2018-02-23T01:31:59.004Z,34.30
2018-02-23T01:32:58.993Z,35.80
2018-02-23T01:33:58.978Z,37.10
2018-02-23T01:34:58.965Z,33.50
2018-02-23T01:35:58.950Z,33.80
2018-02-23T01:36:58.940Z,38.10
2018-02-23T01:37:58.923Z,32.20
2018-02-23T01:38:58.911Z,34.30
2018-02-23T01:39:58.893Z,36.50
2018-02-23T01:40:58.883Z,33.00
2018-02-23T01:41:58.867Z,32.70
2018-02-23T01:42:58.858Z,35.30
2018-02-23T01:43:58.840Z,35.40
2018-02-23T01:44:58.827Z,39.60
2018-02-23T01:45:58.812Z,34.70
2018-02-23T01:46:58.799Z,32.40
2018-02-23T01:47:58.788Z,34.90
2018-02-23T01:48:58.773Z,35.10
2018-02-23T01:49:58.762Z,33.80
2018-02-23T01:50:58.748Z,36.10
2018-02-23T01:51:58.734Z,35.70
2018-02-23T01:52:58.719Z,36.80
2018-02-23T01:53:58.707Z,33.40
2018-02-23T01:54:58.693Z,37.70
2018-02-23T01:55:58.677Z,34.70
2018-02-23T01:56:58.663Z,36.50
2018-02-23T01:57:58.649Z,33.50
2018-02-23T01:58:58.636Z,35.40
2018-02-23T01:59:58.621Z,35.20
2018-02-23T02:00:58.608Z,34.60
2018-02-23T02:01:58.596Z,33.30
2018-02-23T02:02:58.581Z,36.60
2018-02-23T02:03:58.569Z,36.70
2018-02-23T02:04:58.555Z,35.90
2018-02-23T02:05:58.544Z,35.80
2018-02-23T02:06:58.531Z,34.10
2018-02-23T02:07:58.515Z,36.00
2018-02-23T02:08:58.500Z,35.40
2018-02-23T02:09:58.488Z,35.40
2018-02-23T02:10:58.480Z,36.40
2018-02-23T02:11:58.457Z,36.80
2018-02-23T02:12:58.444Z,34.40
2018-02-23T02:13:58.432Z,33.30
2018-02-23T02:14:58.416Z,35.30
2018-02-23T02:15:58.402Z,34.20
2018-02-23T02:16:58.390Z,36.30
2018-02-23T02:17:58.376Z,35.90
2018-02-23T02:18:58.362Z,33.20
2018-02-23T02:19:58.350Z,37.60
2018-02-23T02:20:58.337Z,34.60
2018-02-23T02:21:58.322Z,33.60
2018-02-23T02:22:58.310Z,34.80
2018-02-23T02:23:58.296Z,35.00
2018-02-23T02:24:58.280Z,33.20
2018-02-23T02:25:58.267Z,35.20
2018-02-23T02:26:58.253Z,32.40
2018-02-23T02:27:58.237Z,32.30
2018-02-23T02:28:58.224Z,33.90
2018-02-23T02:29:58.210Z,34.40
2018-02-23T02:30:58.198Z,35.30
2018-02-23T02:31:58.184Z,36.70
2018-02-23T02:32:58.168Z,30.60
2018-02-23T02:33:58.159Z,36.60
2018-02-23T02:34:58.143Z,31.50
2018-02-23T02:35:58.133Z,32.10
2018-02-23T02:36:58.116Z,34.80
2018-02-23T02:37:58.102Z,32.00
2018-02-23T02:38:58.090Z,34.10
2018-02-23T02:39:58.075Z,32.20
2018-02-23T02:40:58.063Z,33.20
2018-02-23T02:41:58.047Z,33.90
2018-02-23T02:42:58.046Z,32.60
2018-02-23T02:43:58.016Z,31.90
2018-02-23T02:44:58.001Z,31.60
2018-02-23T02:45:57.989Z,31.40
2018-02-23T02:46:57.976Z,37.40
2018-02-23T02:47:57.959Z,31.50
2018-02-23T02:48:57.946Z,32.40
2018-02-23T02:49:57.935Z,33.00
2018-02-23T02:50:57.922Z,35.10
2018-02-23T02:51:57.907Z,31.10
2018-02-23T02:52:57.894Z,35.50
2018-02-23T02:53:57.880Z,32.20
2018-02-23T02:54:57.876Z,33.80
2018-02-23T02:55:57.850Z,36.10
2018-02-23T02:56:57.837Z,33.90
2018-02-23T02:57:57.821Z,34.40
2018-02-23T02:58:57.808Z,32.40
2018-02-23T02:59:57.797Z,32.30
2018-02-23T03:00:57.785Z,33.20
2018-02-23T03:01:57.771Z,33.90
2018-02-23T03:02:57.756Z,34.30
2018-02-23T03:03:57.741Z,32.20
2018-02-23T03:04:57.726Z,32.90
2018-02-23T03:05:57.714Z,31.40
2018-02-23T03:06:57.701Z,34.50
2018-02-23T03:07:57.683Z,33.60
2018-02-23T03:08:57.668Z,33.70
2018-02-23T03:09:57.656Z,33.80
2018-02-23T03:10:57.641Z,32.50
2018-02-23T03:11:57.626Z,34.00
2018-02-23T03:12:57.612Z,34.30
2018-02-23T03:13:57.598Z,32.80
2018-02-23T03:14:57.585Z,35.70
2018-02-23T03:15:57.573Z,37.30
2018-02-23T03:16:57.560Z,32.30
2018-02-23T03:17:57.548Z,32.10
2018-02-23T03:18:57.534Z,36.40
2018-02-23T03:19:57.517Z,33.20
2018-02-23T03:20:57.505Z,34.40
2018-02-23T03:21:57.489Z,34.10
2018-02-23T03:22:57.476Z,33.00
2018-02-23T03:23:57.459Z,35.10
2018-02-23T03:24:57.445Z,35.50
2018-02-23T03:25:57.431Z,34.60
2018-02-23T03:26:57.418Z,31.80
2018-02-23T03:27:57.405Z,33.60
2018-02-23T03:28:57.390Z,34.10
2018-02-23T03:29:57.376Z,33.60
2018-02-23T03:30:57.363Z,36.30
2018-02-23T03:31:57.350Z,36.60
2018-02-23T03:32:57.337Z,33.50
2018-02-23T03:33:57.324Z,37.40
2018-02-23T03:34:57.310Z,37.50
2018-02-23T03:35:57.296Z,31.00
2018-02-23T03:36:57.281Z,34.30
2018-02-23T03:37:57.268Z,35.30
2018-02-23T03:38:57.253Z,33.80
2018-02-23T03:39:57.240Z,32.60
2018-02-23T03:40:57.224Z,32.60
2018-02-23T03:41:57.210Z,33.90
2018-02-23T03:42:57.195Z,32.60
2018-02-23T03:43:57.181Z,33.30
2018-02-23T03:44:57.166Z,35.50
2018-02-23T03:45:57.152Z,34.10
2018-02-23T03:46:57.139Z,32.70
2018-02-23T03:47:57.128Z,35.60
2018-02-23T03:48:57.113Z,34.50
2018-02-23T03:49:57.099Z,38.20
2018-02-23T03:50:57.085Z,34.10
2018-02-23T03:51:57.072Z,37.50
2018-02-23T03:52:57.062Z,37.00
2018-02-23T03:53:57.044Z,37.70
2018-02-23T03:54:57.030Z,38.10
2018-02-23T03:55:57.014Z,39.60
2018-02-23T03:56:56.998Z,38.40
2018-02-23T03:57:56.985Z,35.70
2018-02-23T03:58:56.971Z,35.90
2018-02-23T03:59:56.960Z,37.60
2018-02-23T04:00:56.946Z,37.80
2018-02-23T04:01:56.933Z,35.70
2018-02-23T04:02:56.919Z,34.20
2018-02-23T04:03:56.901Z,41.70
2018-02-23T04:04:56.887Z,36.20
2018-02-23T04:05:56.873Z,37.60
2018-02-23T04:06:56.861Z,36.40
2018-02-23T04:07:56.844Z,32.80
2018-02-23T04:08:56.831Z,35.20
2018-02-23T04:09:56.819Z,33.20
2018-02-23T04:10:56.806Z,36.00
2018-02-23T04:11:56.793Z,36.20
2018-02-23T04:12:56.778Z,36.10
2018-02-23T04:13:56.764Z,34.80
2018-02-23T04:14:56.751Z,39.30
2018-02-23T04:15:56.736Z,36.00
2018-02-23T04:16:56.723Z,37.30
2018-02-23T04:17:56.709Z,36.10
2018-02-23T04:18:56.694Z,36.10
2018-02-23T04:19:56.677Z,41.50
2018-02-23T04:20:56.665Z,38.60
2018-02-23T04:21:56.650Z,37.20
2018-02-23T04:22:56.635Z,34.60
2018-02-23T04:23:56.622Z,37.70
2018-02-23T04:24:56.606Z,36.20
2018-02-23T04:25:56.593Z,39.70
2018-02-23T04:26:56.582Z,38.10
2018-02-23T04:27:56.569Z,43.10
2018-02-23T04:28:56.554Z,39.50
2018-02-23T04:29:56.541Z,35.30
2018-02-23T04:30:56.530Z,39.80
2018-02-23T04:31:56.512Z,38.70
2018-02-23T04:32:56.498Z,40.10
2018-02-23T04:33:56.487Z,38.60
2018-02-23T04:34:56.470Z,37.40
2018-02-23T04:35:56.452Z,38.00
2018-02-23T04:36:56.439Z,37.70
2018-02-23T04:37:56.427Z,39.00
2018-02-23T04:38:56.411Z,38.00
2018-02-23T04:39:56.396Z,34.90
2018-02-23T04:40:56.384Z,38.40
2018-02-23T04:41:56.369Z,36.80
2018-02-23T04:42:56.355Z,37.10
2018-02-23T04:43:56.344Z,41.60
2018-02-23T04:44:56.328Z,37.30
2018-02-23T04:45:56.316Z,42.80
2018-02-23T04:46:56.304Z,38.60
2018-02-23T04:47:56.286Z,38.30
2018-02-23T04:48:56.274Z,39.20
2018-02-23T04:49:56.258Z,39.00
2018-02-23T04:50:56.247Z,39.00
2018-02-23T04:51:56.229Z,38.50
2018-02-23T04:52:56.214Z,39.90
2018-02-23T04:53:56.200Z,38.30
2018-02-23T04:54:56.187Z,39.70
2018-02-23T04:55:56.179Z,39.90
2018-02-23T04:56:56.157Z,41.00
2018-02-23T04:57:56.144Z,38.90
2018-02-23T04:58:56.130Z,38.70
2018-02-23T04:59:56.119Z,38.70
2018-02-23T05:00:56.104Z,37.70
2018-02-23T05:01:56.092Z,39.50
2018-02-23T05:02:56.078Z,38.50
2018-02-23T05:03:56.060Z,36.90
2018-02-23T05:04:56.046Z,38.50
2018-02-23T05:05:56.032Z,38.00
2018-02-23T05:06:56.023Z,39.30
2018-02-23T05:07:56.005Z,41.10
2018-02-23T05:08:55.993Z,39.80
2018-02-23T05:09:55.980Z,39.50
2018-02-23T05:10:55.964Z,40.20
2018-02-23T05:11:55.950Z,36.90
2018-02-23T05:12:55.936Z,41.10
2018-02-23T05:13:55.921Z,42.90
2018-02-23T05:14:55.908Z,43.50
2018-02-23T05:15:55.891Z,39.50
2018-02-23T05:16:55.876Z,43.10
2018-02-23T05:17:55.862Z,42.20
2018-02-23T05:18:55.848Z,42.10
2018-02-23T05:19:55.832Z,40.90
2018-02-23T05:20:55.820Z,40.20
2018-02-23T05:21:55.806Z,42.60
2018-02-23T05:22:55.791Z,40.30
2018-02-23T05:23:55.780Z,40.60
2018-02-23T05:24:55.767Z,42.00
2018-02-23T05:25:55.751Z,41.10
2018-02-23T05:26:55.737Z,39.90
2018-02-23T05:27:55.724Z,41.30
2018-02-23T05:28:55.712Z,40.50
2018-02-23T05:29:55.696Z,40.70
2018-02-23T05:30:55.682Z,43.50
2018-02-23T05:31:55.663Z,40.60
2018-02-23T05:32:55.649Z,42.10
2018-02-23T05:33:55.635Z,43.70
2018-02-23T05:34:55.622Z,44.80
2018-02-23T05:35:55.606Z,47.70
2018-02-23T05:36:55.596Z,43.70
2018-02-23T05:37:55.579Z,46.70
2018-02-23T05:38:55.565Z,43.90
2018-02-23T05:39:55.552Z,45.20
2018-02-23T05:40:55.540Z,42.30
2018-02-23T05:41:55.526Z,42.20
2018-02-23T05:42:55.511Z,44.60
2018-02-23T05:43:55.495Z,41.00
2018-02-23T05:44:55.483Z,43.60
2018-02-23T05:45:55.470Z,46.00
2018-02-23T05:46:55.455Z,42.20
2018-02-23T05:47:55.437Z,44.20
2018-02-23T05:48:55.423Z,44.40
2018-02-23T05:49:55.409Z,42.10
2018-02-23T05:50:55.394Z,42.70
2018-02-23T05:51:55.380Z,49.40
2018-02-23T05:52:55.366Z,44.30
2018-02-23T05:53:55.352Z,46.00
2018-02-23T05:54:55.338Z,43.30
2018-02-23T05:55:55.325Z,44.70
2018-02-23T05:56:55.313Z,42.50
2018-02-23T05:57:55.299Z,43.30
2018-02-23T05:58:55.285Z,43.40
2018-02-23T05:59:55.276Z,43.70
2018-02-23T06:00:55.257Z,44.20
2018-02-23T06:01:55.242Z,45.60
2018-02-23T06:02:55.227Z,47.00
2018-02-23T06:03:55.210Z,45.10
2018-02-23T06:04:55.197Z,46.00
2018-02-23T06:05:55.182Z,45.70
2018-02-23T06:06:55.169Z,49.20
2018-02-23T06:07:55.156Z,45.80
2018-02-23T06:08:55.143Z,47.40
2018-02-23T06:09:55.129Z,46.80
2018-02-23T06:10:55.114Z,46.40
2018-02-23T06:11:55.097Z,43.30
2018-02-23T06:12:55.084Z,46.50
2018-02-23T06:13:55.072Z,46.20
2018-02-23T06:14:55.055Z,46.40
2018-02-23T06:15:55.040Z,43.30
2018-02-23T06:16:55.029Z,46.30
2018-02-23T06:17:55.013Z,44.50
2018-02-23T06:18:54.998Z,46.50
2018-02-23T06:19:54.989Z,44.40
2018-02-23T06:20:54.973Z,46.50
2018-02-23T06:21:54.960Z,50.50
2018-02-23T06:22:54.944Z,49.20
2018-02-23T06:23:54.930Z,47.00
2018-02-23T06:25:54.906Z,54.20
2018-02-23T06:26:54.888Z,49.20
2018-02-23T06:27:54.868Z,50.60
2018-02-23T06:28:54.855Z,48.20
2018-02-23T06:29:54.841Z,47.90
2018-02-23T06:30:54.828Z,46.60
2018-02-23T06:31:54.813Z,46.50
2018-02-23T06:32:54.799Z,49.10
2018-02-23T06:33:54.783Z,49.10
2018-02-23T06:34:54.770Z,45.40
2018-02-23T06:35:54.758Z,46.90
2018-02-23T06:36:54.745Z,49.80
2018-02-23T06:37:54.731Z,46.60
2018-02-23T06:38:54.717Z,48.10
2018-02-23T06:39:54.703Z,46.90
2018-02-23T06:40:54.687Z,48.20
2018-02-23T06:41:54.674Z,45.30
2018-02-23T06:42:54.660Z,47.40
2018-02-23T06:43:54.642Z,43.50
2018-02-23T06:44:54.629Z,46.70
2018-02-23T06:45:54.614Z,43.70
2018-02-23T06:46:54.600Z,44.60
2018-02-23T06:47:54.588Z,43.70
2018-02-23T06:48:54.571Z,43.70
2018-02-23T06:49:54.557Z,44.30
2018-02-23T06:50:54.543Z,46.80
2018-02-23T06:51:54.532Z,45.70
2018-02-23T06:52:54.517Z,46.40
2018-02-23T06:53:54.505Z,47.30
2018-02-23T06:54:54.490Z,42.60
2018-02-23T06:55:54.475Z,46.60
2018-02-23T06:56:54.461Z,39.70
2018-02-23T06:57:54.448Z,41.90
2018-02-23T06:58:54.434Z,41.40
2018-02-23T06:59:54.415Z,43.40
2018-02-23T07:00:54.404Z,41.00
2018-02-23T07:01:54.389Z,39.10
2018-02-23T07:02:54.384Z,38.60
2018-02-23T07:03:54.364Z,38.80
2018-02-23T07:04:54.352Z,38.60
2018-02-23T07:05:54.338Z,39.10
2018-02-23T07:06:54.325Z,38.30
2018-02-23T07:07:54.315Z,38.70
2018-02-23T07:08:54.303Z,41.50
2018-02-23T07:09:54.291Z,41.30
2018-02-23T07:10:54.280Z,38.70
2018-02-23T07:11:54.263Z,41.10
2018-02-23T07:12:54.252Z,39.30
2018-02-23T07:13:54.240Z,39.20
2018-02-23T07:14:54.227Z,42.10
2018-02-23T07:15:54.218Z,39.60
2018-02-23T07:16:54.207Z,40.70
2018-02-23T07:17:54.195Z,38.00
2018-02-23T07:18:54.183Z,39.50
2018-02-23T07:19:54.171Z,38.60
2018-02-23T07:20:54.160Z,40.00
2018-02-23T07:21:54.147Z,38.20
2018-02-23T07:22:54.137Z,35.30
2018-02-23T07:23:54.120Z,36.50
2018-02-23T07:24:54.109Z,35.90
2018-02-23T07:25:54.098Z,35.40
2018-02-23T07:26:54.088Z,36.40
2018-02-23T07:27:54.076Z,33.90
2018-02-23T07:28:54.067Z,34.60
2018-02-23T07:29:54.057Z,35.00
2018-02-23T07:30:54.049Z,36.40
2018-02-23T07:31:54.039Z,35.80
2018-02-23T07:32:54.031Z,34.40
2018-02-23T07:33:54.022Z,36.20
2018-02-23T07:34:54.013Z,35.80
2018-02-23T07:35:54.004Z,36.20
2018-02-23T07:36:53.997Z,35.30
2018-02-23T07:37:53.998Z,33.40
2018-02-23T07:38:53.982Z,35.10
2018-02-23T07:39:53.972Z,34.10
2018-02-23T07:40:53.965Z,33.80
2018-02-23T07:41:53.959Z,33.00
2018-02-23T07:42:53.952Z,36.00
2018-02-23T07:43:53.945Z,36.40
2018-02-23T07:44:53.940Z,34.40
2018-02-23T07:45:53.936Z,32.10
2018-02-23T07:46:53.928Z,32.80
2018-02-23T07:47:53.925Z,32.80
2018-02-23T07:48:53.920Z,32.40
2018-02-23T07:49:53.916Z,32.00
2018-02-23T07:50:53.911Z,31.00
2018-02-23T07:51:53.907Z,29.20
2018-02-23T07:52:53.903Z,30.10
2018-02-23T07:53:53.899Z,31.20
2018-02-23T07:54:53.900Z,27.70
2018-02-23T07:55:53.888Z,29.20
2018-02-23T07:56:53.885Z,27.60
2018-02-23T07:57:53.882Z,24.10
2018-02-23T07:58:53.879Z,24.80
2018-02-23T07:59:53.879Z,24.90
2018-02-23T08:00:53.871Z,26.10
2018-02-23T08:01:53.869Z,24.70
2018-02-23T08:02:53.864Z,22.50
2018-02-23T08:03:53.864Z,21.10
2018-02-23T08:04:53.862Z,21.90
2018-02-23T08:05:53.858Z,21.30
2018-02-23T08:06:53.855Z,21.50
2018-02-23T08:07:53.888Z,21.40
2018-02-23T08:08:53.848Z,21.60
2018-02-23T08:09:53.846Z,20.40
2018-02-23T08:10:53.842Z,18.80
2018-02-23T08:11:53.835Z,18.50
2018-02-23T08:12:53.834Z,18.10
2018-02-23T08:13:53.829Z,18.10
2018-02-23T08:14:53.828Z,18.70
2018-02-23T08:15:53.826Z,18.00
2018-02-23T08:16:53.822Z,17.60
2018-02-23T08:17:53.820Z,18.30
2018-02-23T08:18:53.817Z,18.50
2018-02-23T08:19:53.808Z,18.00
2018-02-23T08:20:53.807Z,18.50
2018-02-23T08:21:53.803Z,18.10
2018-02-23T08:22:53.800Z,18.50
2018-02-23T08:23:53.795Z,18.20
2018-02-23T08:24:53.792Z,18.80
2018-02-23T08:25:53.791Z,21.20
2018-02-23T08:26:53.785Z,18.10
2018-02-23T08:27:53.783Z,18.40
2018-02-23T08:28:53.780Z,17.30
2018-02-23T08:29:53.778Z,17.60
2018-02-23T08:30:53.772Z,17.10
2018-02-23T08:31:53.768Z,17.30
2018-02-23T08:32:53.765Z,16.80
2018-02-23T08:33:53.763Z,17.20
2018-02-23T08:34:53.763Z,16.80
2018-02-23T08:35:53.751Z,17.00
2018-02-23T08:36:53.754Z,18.10
2018-02-23T08:37:53.744Z,17.10
2018-02-23T08:38:53.741Z,17.90
2018-02-23T08:39:53.737Z,17.60
2018-02-23T08:40:53.733Z,17.80
2018-02-23T08:41:53.728Z,17.70
2018-02-23T08:42:53.724Z,16.70
2018-02-23T08:43:53.723Z,17.70
2018-02-23T08:44:53.719Z,17.20
2018-02-23T08:45:53.715Z,17.10
2018-02-23T08:46:53.711Z,17.90
2018-02-23T08:47:53.706Z,16.90
2018-02-23T08:48:53.702Z,17.30
2018-02-23T08:49:53.701Z,17.50
2018-02-23T08:50:53.694Z,16.70
2018-02-23T08:51:53.685Z,17.50
2018-02-23T08:52:53.681Z,18.90
2018-02-23T08:53:53.677Z,17.80
2018-02-23T08:54:53.675Z,17.10
2018-02-23T08:55:53.670Z,16.90
2018-02-23T08:56:53.666Z,17.80
2018-02-23T08:57:53.662Z,17.40
2018-02-23T08:58:53.660Z,17.10
2018-02-23T08:59:53.657Z,17.00
2018-02-23T09:00:53.654Z,17.40
2018-02-23T09:01:53.650Z,18.70
2018-02-23T09:02:53.646Z,17.40
2018-02-23T09:03:53.646Z,17.00
2018-02-23T09:04:53.640Z,18.00
2018-02-23T09:05:53.636Z,19.20
2018-02-23T09:06:53.635Z,17.40
2018-02-23T09:07:53.629Z,17.10
2018-02-23T09:08:53.625Z,17.40
2018-02-23T09:09:53.621Z,18.80
2018-02-23T09:10:53.618Z,17.60
2018-02-23T09:11:53.615Z,17.20
2018-02-23T09:12:53.613Z,16.80
2018-02-23T09:13:53.609Z,17.60
2018-02-23T09:14:53.608Z,18.40
2018-02-23T09:15:53.607Z,19.10
2018-02-23T09:16:53.604Z,17.60
2018-02-23T09:17:53.602Z,17.90
2018-02-23T09:18:53.600Z,19.40
2018-02-23T09:19:53.594Z,20.20
2018-02-23T09:20:53.593Z,18.50
2018-02-23T09:21:53.592Z,18.70
2018-02-23T09:22:53.589Z,18.60
2018-02-23T09:23:53.592Z,19.60
2018-02-23T09:24:53.590Z,19.30
2018-02-23T09:25:53.587Z,19.90
2018-02-23T09:26:53.586Z,20.80
2018-02-23T09:27:53.583Z,19.40
2018-02-23T09:28:53.584Z,19.10
2018-02-23T09:29:53.582Z,18.50
2018-02-23T09:30:53.582Z,18.30
2018-02-23T09:31:53.577Z,18.50
2018-02-23T09:32:53.576Z,18.70
2018-02-23T09:33:53.576Z,18.40
2018-02-23T09:34:53.574Z,18.40
2018-02-23T09:35:53.572Z,19.20
2018-02-23T09:36:53.573Z,19.20
2018-02-23T09:37:53.572Z,19.50
2018-02-23T09:38:53.573Z,19.50
2018-02-23T09:39:53.574Z,20.60
2018-02-23T09:40:53.575Z,20.10
2018-02-23T09:41:53.574Z,20.60
2018-02-23T09:42:53.575Z,19.60
2018-02-23T09:43:53.574Z,21.30
2018-02-23T09:44:53.573Z,19.40
2018-02-23T09:45:53.574Z,19.60
2018-02-23T09:46:53.576Z,20.80
2018-02-23T09:47:53.572Z,20.80
2018-02-23T09:48:53.572Z,20.30
2018-02-23T09:49:53.574Z,20.80
2018-02-23T09:50:53.574Z,20.60
2018-02-23T09:51:53.575Z,20.40
2018-02-23T09:52:53.574Z,20.00
2018-02-23T09:53:53.576Z,20.90
2018-02-23T09:54:53.576Z,20.70
2018-02-23T09:55:53.579Z,19.40
2018-02-23T09:56:53.577Z,19.90
2018-02-23T09:57:53.576Z,18.60
2018-02-23T09:58:53.576Z,18.40
2018-02-23T09:59:53.577Z,20.80
2018-02-23T10:00:53.576Z,19.80
2018-02-23T10:01:53.576Z,20.00
2018-02-23T10:02:53.576Z,20.20
2018-02-23T10:03:53.572Z,20.70
2018-02-23T10:04:53.577Z,20.00
2018-02-23T10:05:53.573Z,20.60
2018-02-23T10:06:53.575Z,19.50
2018-02-23T10:07:53.573Z,21.20
2018-02-23T10:08:53.575Z,21.40
2018-02-23T10:09:53.573Z,20.40
2018-02-23T10:10:53.584Z,21.40
2018-02-23T10:11:53.577Z,21.60
2018-02-23T10:12:53.579Z,20.90
2018-02-23T10:13:53.578Z,19.10
2018-02-23T10:14:53.580Z,20.60
2018-02-23T10:15:53.580Z,20.90
2018-02-23T10:16:53.581Z,21.20
2018-02-23T10:17:53.584Z,21.90
2018-02-23T10:18:53.585Z,23.20
2018-02-23T10:19:53.583Z,22.00
2018-02-23T10:20:53.585Z,20.90
2018-02-23T10:21:53.587Z,21.70
2018-02-23T10:22:53.588Z,23.20
2018-02-23T10:23:53.590Z,24.80
2018-02-23T10:24:53.593Z,22.20
2018-02-23T10:25:53.594Z,22.40
2018-02-23T10:26:53.595Z,22.90
2018-02-23T10:27:53.604Z,23.80
2018-02-23T10:28:53.603Z,24.50
2018-02-23T10:29:53.605Z,23.00
2018-02-23T10:30:53.606Z,22.00
2018-02-23T10:31:53.608Z,22.80
2018-02-23T10:32:53.611Z,22.10
2018-02-23T10:33:53.613Z,21.80
2018-02-23T10:34:53.616Z,21.40
2018-02-23T10:35:53.615Z,21.30
2018-02-23T10:36:53.618Z,21.10
2018-02-23T10:37:53.620Z,22.20
2018-02-23T10:38:53.623Z,22.00
2018-02-23T10:39:53.626Z,22.10
2018-02-23T10:40:53.626Z,21.80
2018-02-23T10:41:53.630Z,21.10
2018-02-23T10:42:53.632Z,21.60
2018-02-23T10:43:53.638Z,20.30
2018-02-23T10:44:53.640Z,20.80
2018-02-23T10:45:53.644Z,21.30
2018-02-23T10:46:53.646Z,21.80
2018-02-23T10:47:53.649Z,20.80
2018-02-23T10:48:53.652Z,20.40
2018-02-23T10:49:53.654Z,21.80
2018-02-23T10:50:53.670Z,21.80
2018-02-23T10:51:53.657Z,21.10
2018-02-23T10:52:53.660Z,21.40
2018-02-23T10:53:53.665Z,21.00
2018-02-23T10:54:53.668Z,21.00
2018-02-23T10:55:53.668Z,21.20
2018-02-23T10:56:53.673Z,21.20
2018-02-23T10:57:53.673Z,20.70
2018-02-23T10:58:53.675Z,20.20
2018-02-23T10:59:53.679Z,21.30
2018-02-23T11:00:53.682Z,21.10
2018-02-23T11:01:53.684Z,20.40
2018-02-23T11:02:53.688Z,18.90
2018-02-23T11:03:53.690Z,20.30
2018-02-23T11:04:53.690Z,20.80
2018-02-23T11:05:53.693Z,19.40
2018-02-23T11:06:53.695Z,20.30
2018-02-23T11:07:53.695Z,18.90
2018-02-23T11:08:53.698Z,19.90
2018-02-23T11:09:53.704Z,17.80
2018-02-23T11:10:53.704Z,17.60
2018-02-23T11:11:53.704Z,17.70
2018-02-23T11:12:53.705Z,20.10
2018-02-23T11:13:53.706Z,18.50
2018-02-23T11:14:53.708Z,19.70
2018-02-23T11:15:53.712Z,19.80
2018-02-23T11:16:53.715Z,20.60
2018-02-23T11:17:53.716Z,20.10
2018-02-23T11:18:53.716Z,19.70
2018-02-23T11:19:53.720Z,18.20
2018-02-23T11:20:53.720Z,17.50
2018-02-23T11:21:53.722Z,17.70
2018-02-23T11:22:53.723Z,18.80
2018-02-23T11:23:53.721Z,18.00
2018-02-23T11:24:53.722Z,18.20
2018-02-23T11:25:53.723Z,20.10
2018-02-23T11:26:53.725Z,19.60
2018-02-23T11:27:53.728Z,20.90
2018-02-23T11:28:53.728Z,19.20
2018-02-23T11:29:53.729Z,20.50
2018-02-23T11:30:53.731Z,19.90
2018-02-23T11:31:53.727Z,19.50
2018-02-23T11:32:53.731Z,18.40
2018-02-23T11:33:53.728Z,18.10
2018-02-23T11:34:53.729Z,18.00
2018-02-23T11:35:53.728Z,19.40
2018-02-23T11:36:53.728Z,20.00
2018-02-23T11:37:53.730Z,18.40
2018-02-23T11:38:53.729Z,18.40
2018-02-23T11:39:53.732Z,18.30
2018-02-23T11:40:53.732Z,17.30
2018-02-23T11:41:53.732Z,19.40
2018-02-23T11:42:53.732Z,18.50
2018-02-23T11:43:53.731Z,19.00
2018-02-23T11:44:53.730Z,20.20
2018-02-23T11:45:53.729Z,17.50
2018-02-23T11:46:53.728Z,19.10
2018-02-23T11:47:53.722Z,18.20
2018-02-23T11:48:53.721Z,20.10
2018-02-23T11:49:53.720Z,17.10
2018-02-23T11:50:53.717Z,17.60
2018-02-23T11:51:53.713Z,18.40
2018-02-23T11:52:53.710Z,16.90
2018-02-23T11:53:53.706Z,20.70
2018-02-23T11:54:53.703Z,18.70
2018-02-23T11:55:53.704Z,20.20
2018-02-23T11:56:53.697Z,18.90
2018-02-23T11:57:53.691Z,18.10
2018-02-23T11:58:53.688Z,16.90
2018-02-23T11:59:53.682Z,16.90
2018-02-23T12:00:53.679Z,16.20
2018-02-23T12:01:53.670Z,17.20
2018-02-23T12:02:53.665Z,16.30
2018-02-23T12:03:53.656Z,16.50
2018-02-23T12:04:53.649Z,17.20
2018-02-23T12:05:53.643Z,17.80
2018-02-23T12:06:53.641Z,15.80
2018-02-23T12:07:53.628Z,16.40
2018-02-23T12:08:53.621Z,16.70
2018-02-23T12:09:53.616Z,17.60
2018-02-23T12:10:53.606Z,15.60
2018-02-23T12:11:53.603Z,16.10
2018-02-23T12:12:53.595Z,17.70
2018-02-23T12:13:53.585Z,16.40
2018-02-23T12:14:53.580Z,16.70
2018-02-23T12:15:53.569Z,16.40
2018-02-23T12:16:53.562Z,16.90
2018-02-23T12:17:53.553Z,16.00
2018-02-23T12:18:53.547Z,16.90
2018-02-23T12:19:53.533Z,16.60
2018-02-23T12:20:53.527Z,17.30
2018-02-23T12:21:53.517Z,16.50
2018-02-23T12:22:53.509Z,17.40
2018-02-23T12:23:53.498Z,17.00
2018-02-23T12:24:53.491Z,17.00
2018-02-23T12:25:53.481Z,16.70
2018-02-23T12:26:53.474Z,17.70
2018-02-23T12:27:53.467Z,17.80
2018-02-23T12:28:53.456Z,17.90
2018-02-23T12:29:53.448Z,18.70
2018-02-23T12:30:53.440Z,18.20
2018-02-23T12:31:53.426Z,18.20
2018-02-23T12:32:53.417Z,17.80
2018-02-23T12:33:53.408Z,18.30
2018-02-23T12:34:53.398Z,19.40
2018-02-23T12:35:53.391Z,17.90
2018-02-23T12:36:53.382Z,17.70
2018-02-23T12:37:53.373Z,17.60
2018-02-23T12:38:53.364Z,18.60
2018-02-23T12:39:53.354Z,17.10
2018-02-23T12:40:53.346Z,17.30
2018-02-23T12:41:53.336Z,17.90
2018-02-23T12:42:53.327Z,17.60
2018-02-23T12:43:53.314Z,17.50
2018-02-23T12:44:53.305Z,17.80
2018-02-23T12:45:53.298Z,18.00
2018-02-23T12:46:53.287Z,17.00
2018-02-23T12:47:53.277Z,18.10
2018-02-23T12:48:53.268Z,18.50
2018-02-23T12:49:53.259Z,17.70
2018-02-23T12:50:53.253Z,17.50
2018-02-23T12:51:53.244Z,17.20
2018-02-23T12:52:53.234Z,18.60